Dades meteomassalio
Diari Summary for Noviembre 22, 2017 Units:  English    Metric   Both
« Previous Day
Next Day »
Diari Semanal Mensual Anual Personalitzat
  Maxima: Minima: Mijana:
Temperatura: TemperatureC °F -3.9 °F 3.4 °F
Rosada: DewpointC °F -6.9 °F -3.8 °F
Humitat: Humidity % 33 % 62 %
Velocitat del vent: WindSpeedKMH mph 0.0 mph 1.4 mph
Racha vent: WindSpeedGustKMH mph - -
Vent:- - SSE
Pressio: PressurehPa in 1017.8 in -
Pluja: 0.0 in    
Historical Graphs
 
 
Tabular Data for Noviembre 22, 2017
Time Temperature Dew Point Pressure Wind Wind Speed Wind Gust Humidity Rainfall Rate (Hourly) solar Conditions
TemperatureC °F DewpointC °F PressurehPa in Calm     Humidity % HourlyPrecipMM in SolarRadiationWatts/m^2 W/m2 Conditions
00:04 -1.1 °F -5.7 °F 1023.9 in WSW 5.6 mph 5.6 mph 71 % 0.0 in 0.0 W/m2 CLR
00:14 -1.1 °F -5.7 °F 1023.6 in Calm     71 % 0.0 in 0.0 W/m2 CLR
00:24 -1.1 °F -5.5 °F 1023.6 in Calm     72 % 0.0 in 0.0 W/m2 CLR
00:34 -1.1 °F -5.3 °F 1023.6 in WSW 5.6 mph 5.6 mph 73 % 0.0 in 0.0 W/m2 CLR
00:39 -1.1 °F -5.3 °F 1023.6 in WSW 3.7 mph 3.7 mph 73 % 0.0 in 0.0 W/m2 CLR
00:44 -1.7 °F -6.1 °F 1023.6 in Calm     72 % 0.0 in 0.0 W/m2 CLR
00:49 -1.7 °F -6.1 °F 1023.6 in WSW 4.8 mph 4.8 mph 72 % 0.0 in 0.0 W/m2 CLR
00:55 -2.2 °F -6.4 °F 1023.6 in WSW 6.4 mph 6.4 mph 73 % 0.0 in 0.0 W/m2 CLR
01:00 -1.7 °F -6.1 °F 1023.2 in WSW 9.3 mph 9.3 mph 72 % 0.0 in 0.0 W/m2 CLR
01:05 -1.1 °F -5.5 °F 1023.6 in WSW 5.6 mph 5.6 mph 72 % 0.0 in 0.0 W/m2 CLR
01:10 -1.1 °F -5.5 °F 1023.2 in West 5.6 mph 5.6 mph 72 % 0.0 in 0.0 W/m2 CLR
01:15 -1.7 °F -6.1 °F 1023.2 in West 5.6 mph 5.6 mph 72 % 0.0 in 0.0 W/m2 CLR
01:20 -1.7 °F -6.1 °F 1023.2 in Calm     72 % 0.0 in 0.0 W/m2 CLR
01:25 -2.2 °F -6.4 °F 1023.2 in West 6.4 mph 6.4 mph 73 % 0.0 in 0.0 W/m2 CLR
01:30 -2.2 °F -6.4 °F 1023.2 in WSW 5.6 mph 5.6 mph 73 % 0.0 in 0.0 W/m2 CLR
01:35 -2.2 °F -6.4 °F 1022.9 in West 5.6 mph 5.6 mph 73 % 0.0 in 0.0 W/m2 CLR
01:45 -2.8 °F -6.8 °F 1022.9 in Calm     74 % 0.0 in 0.0 W/m2 CLR
01:50 -2.8 °F -6.8 °F 1022.9 in Calm     74 % 0.0 in 0.0 W/m2 CLR
01:55 -2.8 °F -6.9 °F 1022.9 in Calm     73 % 0.0 in 0.0 W/m2 CLR
02:00 -2.8 °F -6.9 °F 1022.9 in Calm     73 % 0.0 in 0.0 W/m2 CLR
02:05 -2.2 °F -6.2 °F 1022.9 in Calm     74 % 0.0 in 0.0 W/m2 CLR
02:10 -2.2 °F -6.1 °F 1022.9 in West 1.9 mph 2.1 mph 75 % 0.0 in 0.0 W/m2 CLR
02:15 -2.2 °F -6.1 °F 1022.9 in Calm     75 % 0.0 in 0.0 W/m2 CLR
02:20 -2.2 °F -6.1 °F 1022.9 in Calm     75 % 0.0 in 0.0 W/m2 CLR
02:25 -2.2 °F -6.2 °F 1022.9 in Calm     74 % 0.0 in 0.0 W/m2 CLR
02:30 -2.2 °F -6.1 °F 1022.9 in Calm     75 % 0.0 in 0.0 W/m2 CLR
02:35 -2.2 °F -6.1 °F 1022.9 in Calm     75 % 0.0 in 0.0 W/m2 CLR
02:40 -2.2 °F -6.1 °F 1022.9 in Calm     75 % 0.0 in 0.0 W/m2 CLR
02:45 -2.2 °F -6.1 °F 1022.6 in Calm     75 % 0.0 in 0.0 W/m2 CLR
02:50 -2.2 °F -5.9 °F 1022.6 in Calm     76 % 0.0 in 0.0 W/m2 CLR
02:55 -2.2 °F -5.9 °F 1022.6 in Calm     76 % 0.0 in 0.0 W/m2 CLR
03:05 -2.2 °F -5.9 °F 1022.6 in Calm     76 % 0.0 in 0.0 W/m2 CLR
03:10 -2.2 °F -5.9 °F 1022.6 in Calm     76 % 0.0 in 0.0 W/m2 CLR
03:25 -2.2 °F -5.9 °F 1022.9 in Calm     76 % 0.0 in 0.0 W/m2 CLR
03:32 -2.2 °F -5.7 °F 1022.6 in WSW 3.7 mph 3.7 mph 77 % 0.0 in 0.0 W/m2 CLR
03:37 -2.2 °F -5.7 °F 1022.6 in SW 3.7 mph 3.7 mph 77 % 0.0 in 0.0 W/m2 CLR
03:42 -2.2 °F -5.7 °F 1022.6 in Calm     77 % 0.0 in 0.0 W/m2 CLR
03:47 -2.2 °F -5.7 °F 1022.6 in Calm     77 % 0.0 in 0.0 W/m2 CLR
03:52 -2.2 °F -5.6 °F 1022.2 in WSW 3.7 mph 3.7 mph 78 % 0.0 in 0.0 W/m2 CLR
03:57 -2.8 °F -5.9 °F 1022.2 in West 6.4 mph 6.4 mph 79 % 0.0 in 0.0 W/m2 CLR
04:02 -2.8 °F -5.9 °F 1021.9 in West 3.7 mph 3.7 mph 79 % 0.0 in 0.0 W/m2 CLR
04:07 -2.8 °F -6.1 °F 1021.9 in Calm     78 % 0.0 in 0.0 W/m2 CLR
04:12 -2.2 °F -5.6 °F 1021.9 in West 3.7 mph 3.7 mph 78 % 0.0 in 0.0 W/m2 CLR
04:22 -2.8 °F -6.3 °F 1021.9 in Calm     77 % 0.0 in 0.0 W/m2 CLR
04:35 -3.3 °F -6.6 °F 1021.9 in Calm     78 % 0.0 in 0.0 W/m2 CLR
04:40 -3.3 °F -6.4 °F 1021.9 in Calm     79 % 0.0 in 0.0 W/m2 CLR
04:41 -3.3 °F -6.6 °F 1021.9 in Calm     78 % 0.0 in 0.0 W/m2 CLR
04:46 -3.3 °F -6.6 °F 1021.9 in Calm     78 % 0.0 in 0.0 W/m2 CLR
04:51 -3.3 °F -6.4 °F 1021.9 in Calm     79 % 0.0 in 0.0 W/m2 CLR
04:56 -3.3 °F -6.4 °F 1021.9 in Calm     79 % 0.0 in 0.0 W/m2 CLR
05:16 -3.3 °F -6.3 °F 1021.9 in Calm     80 % 0.0 in 0.0 W/m2 CLR
05:31 -3.3 °F -6.1 °F 1021.6 in West 5.6 mph 5.6 mph 81 % 0.0 in 0.0 W/m2 CLR
05:41 -3.3 °F -6.1 °F 1021.6 in WSW 6.4 mph 6.4 mph 81 % 0.0 in 0.0 W/m2 CLR
05:46 -2.8 °F -5.6 °F 1021.6 in WSW 3.7 mph 3.7 mph 81 % 0.0 in 0.0 W/m2 CLR
05:51 -2.8 °F -5.7 °F 1021.6 in Calm     80 % 0.0 in 0.0 W/m2 CLR
05:56 -2.8 °F -5.7 °F 1021.6 in Calm     80 % 0.0 in 0.0 W/m2 CLR
06:01 -2.8 °F -5.6 °F 1021.6 in Calm     81 % 0.0 in 0.0 W/m2 CLR
06:06 -3.3 °F -6.1 °F 1021.6 in WSW 3.7 mph 3.7 mph 81 % 0.0 in 0.0 W/m2 CLR
06:11 -3.3 °F -6.1 °F 1021.6 in Calm     81 % 0.0 in 0.0 W/m2 CLR
06:21 -3.3 °F -6.3 °F 1021.6 in Calm     80 % 0.0 in 0.0 W/m2 CLR
06:26 -3.9 °F -6.7 °F 1021.2 in West 6.4 mph 6.4 mph 81 % 0.0 in 0.0 W/m2 CLR
06:31 -3.9 °F -6.5 °F 1021.2 in Calm     82 % 0.0 in 0.0 W/m2 CLR
06:36 -3.9 °F -6.5 °F 1021.2 in Calm     82 % 0.0 in 0.0 W/m2 CLR
06:41 -3.9 °F -6.7 °F 1021.2 in Calm     81 % 0.0 in 0.0 W/m2 CLR
06:51 -3.9 °F -6.5 °F 1021.2 in West 5.6 mph 5.6 mph 82 % 0.0 in 0.0 W/m2 CLR
06:56 -3.9 °F -6.5 °F 1021.2 in WSW 5.6 mph 5.6 mph 82 % 0.0 in 0.0 W/m2 CLR
07:01 -3.9 °F -6.5 °F 1021.2 in WSW 3.7 mph   82 % 0.0 in 0.0 W/m2 CLR
07:06 -3.3 °F -5.9 °F 1021.2 in Calm     82 % 0.0 in 0.0 W/m2 CLR
07:11 -3.3 °F -5.9 °F 1021.2 in Calm     82 % 0.0 in 0.0 W/m2 CLR
07:16 -3.9 °F -6.5 °F 1021.2 in Calm     82 % 0.0 in 0.0 W/m2 CLR
07:21 -3.3 °F -5.8 °F 1021.2 in Calm     83 % 0.0 in 0.0 W/m2 CLR
07:26 -3.3 °F -5.7 °F 1021.2 in WSW 5.6 mph 5.6 mph 84 % 0.0 in 0.0 W/m2 CLR
07:31 -3.9 °F -6.2 °F 1020.9 in WSW 3.7 mph 3.7 mph 84 % 0.0 in 0.0 W/m2 CLR
07:41 -3.9 °F -6.3 °F 1020.9 in Calm     83 % 0.0 in 0.0 W/m2 CLR
07:46 -3.9 °F -6.3 °F 1021.2 in WSW 3.7 mph 3.7 mph 83 % 0.0 in 0.0 W/m2 OVC
07:51 -3.3 °F -5.7 °F 1021.2 in West 5.6 mph 5.6 mph 84 % 0.0 in 0.0 W/m2 OVC
07:56 -3.3 °F -5.8 °F 1021.2 in WSW 3.7 mph 3.7 mph 83 % 0.0 in 5.0 W/m2 OVC
08:11 -3.9 °F -6.2 °F 1021.2 in Calm     84 % 0.0 in 12.0 W/m2 BKN
08:17 -3.9 °F -6.2 °F 1021.2 in Calm     84 % 0.0 in 14.0 W/m2 BKN
08:26 -3.3 °F -5.7 °F 1021.2 in Calm     84 % 0.0 in 23.0 W/m2 BKN
08:32 -3.3 °F -5.7 °F 1021.2 in Calm     84 % 0.0 in 30.0 W/m2 BKN
08:37 -3.3 °F -5.8 °F 1021.2 in Calm     83 % 0.0 in 37.0 W/m2 BKN
08:42 -3.3 °F -5.8 °F 1021.2 in Calm     83 % 0.0 in 47.0 W/m2 SCT
08:47 -3.3 °F -5.9 °F 1021.2 in Calm     82 % 0.0 in 53.0 W/m2 SCT
08:57 -3.3 °F -6.3 °F 1021.6 in Calm     80 % 0.0 in 90.0 W/m2 FEW
09:02 -3.3 °F -6.3 °F 1021.2 in Calm     80 % 0.0 in 83.0 W/m2 FEW
09:07 -2.8 °F -5.9 °F 1021.6 in Calm     79 % 0.0 in 118.0 W/m2 CLR
09:17 -2.2 °F -5.9 °F 1021.6 in Calm     76 % 0.0 in 121.0 W/m2 CLR
09:22 -1.7 °F -5.5 °F 1021.6 in Calm     75 % 0.0 in 162.0 W/m2 CLR
09:27 -1.1 °F -5.0 °F 1021.6 in Calm     75 % 0.0 in 179.0 W/m2 CLR
09:32 -1.1 °F -5.2 °F 1021.6 in Calm     74 % 0.0 in 172.0 W/m2 CLR
09:37 -1.1 °F -5.3 °F 1021.6 in Calm     73 % 0.0 in 179.0 W/m2 CLR
09:42 -0.6 °F -5.2 °F 1021.6 in Calm     71 % 0.0 in 221.0 W/m2 CLR
09:47 -0.6 °F -5.3 °F 1021.6 in Calm     70 % 0.0 in 221.0 W/m2 CLR
09:57 0.0 °F -5.6 °F 1021.6 in Calm     66 % 0.0 in 262.0 W/m2 CLR
10:02 0.6 °F -5.3 °F 1021.6 in Calm     65 % 0.0 in 274.0 W/m2 CLR
10:07 1.1 °F -5.2 °F 1021.6 in Calm     63 % 0.0 in 287.0 W/m2 CLR
10:12 1.1 °F -5.6 °F 1021.2 in Calm     61 % 0.0 in 297.0 W/m2 CLR
10:13 1.7 °F -5.1 °F 1021.2 in Calm     61 % 0.0 in 299.0 W/m2 CLR
10:28 2.8 °F -4.9 °F 1021.2 in Calm     57 % 0.0 in 330.0 W/m2 CLR
10:33 3.3 °F -4.8 °F 1021.2 in Calm     55 % 0.0 in 341.0 W/m2 CLR
10:38 3.9 °F -4.6 °F 1021.2 in Calm     54 % 0.0 in 350.0 W/m2 CLR
10:43 4.4 °F -4.1 °F 1021.2 in Calm     54 % 0.0 in 359.0 W/m2 CLR
10:48 5.6 °F -3.1 °F 1021.2 in Calm     54 % 0.0 in 367.0 W/m2 CLR
10:53 6.1 °F -3.0 °F 1021.2 in Calm     52 % 0.0 in 376.0 W/m2 CLR
10:58 6.7 °F -2.8 °F 1021.2 in Calm     51 % 0.0 in 387.0 W/m2 CLR
11:03 7.2 °F -2.5 °F 1020.9 in Calm     50 % 0.0 in 396.0 W/m2 CLR
11:08 7.8 °F -2.3 °F 1020.9 in Calm     49 % 0.0 in 403.0 W/m2 CLR
11:18 8.3 °F -2.9 °F 1020.9 in Calm     45 % 0.0 in 417.0 W/m2 CLR
11:23 9.4 °F -1.9 °F 1020.9 in Calm     45 % 0.0 in 422.0 W/m2 CLR
11:28 10.0 °F -1.4 °F 1020.9 in Calm     45 % 0.0 in 429.0 W/m2 CLR
11:38 10.6 °F -1.5 °F 1020.9 in Calm     43 % 0.0 in 443.0 W/m2 CLR
12:03 12.2 °F -0.3 °F 1020.5 in Calm     42 % 0.0 in 462.0 W/m2 CLR
12:08 12.2 °F -0.3 °F 1020.2 in Calm     42 % 0.0 in 464.0 W/m2 CLR
12:13 12.8 °F 0.2 °F 1020.2 in East 5.6 mph 5.6 mph 42 % 0.0 in 468.0 W/m2 CLR
12:18 12.8 °F -0.2 °F 1019.9 in East 5.6 mph 5.6 mph 41 % 0.0 in 469.0 W/m2 CLR
12:23 12.8 °F -0.2 °F 1019.9 in East 1.9 mph   41 % 0.0 in 471.0 W/m2 CLR
12:28 13.3 °F 0.7 °F 1019.9 in East 6.4 mph 6.4 mph 42 % 0.0 in 473.0 W/m2 CLR
12:33 13.3 °F 0.7 °F 1019.9 in East 5.6 mph 5.6 mph 42 % 0.0 in 475.0 W/m2 CLR
12:38 13.3 °F 0.7 °F 1019.5 in ENE 5.6 mph 5.6 mph 42 % 0.0 in 475.0 W/m2 CLR
12:43 13.3 °F 0.7 °F 1019.5 in ENE 5.6 mph 5.6 mph 42 % 0.0 in 476.0 W/m2 CLR
12:48 13.3 °F 0.3 °F 1019.5 in ENE 4.8 mph 4.8 mph 41 % 0.0 in 476.0 W/m2 CLR
12:59 13.9 °F 0.8 °F 1019.5 in East 4.8 mph 4.8 mph 41 % 0.0 in 475.0 W/m2 CLR
13:04 13.9 °F 0.8 °F 1019.5 in East 3.7 mph 3.7 mph 41 % 0.0 in 473.0 W/m2 CLR
13:09 13.9 °F 0.8 °F 1019.2 in East 5.6 mph 5.6 mph 41 % 0.0 in 471.0 W/m2 CLR
13:14 13.9 °F 0.5 °F 1019.2 in ENE 5.6 mph 5.6 mph 40 % 0.0 in 469.0 W/m2 CLR
13:19 13.9 °F 0.5 °F 1019.2 in East 5.6 mph 5.6 mph 40 % 0.0 in 468.0 W/m2 CLR
13:24 14.4 °F 1.0 °F 1019.2 in ENE 3.7 mph 3.7 mph 40 % 0.0 in 468.0 W/m2 CLR
13:34 14.4 °F 0.3 °F 1018.8 in East 5.6 mph 5.6 mph 38 % 0.0 in 462.0 W/m2 CLR
13:44 15.0 °F 0.4 °F 1018.8 in East 5.6 mph 5.6 mph 37 % 0.0 in 455.0 W/m2 CLR
13:49 15.6 °F 0.9 °F 1018.8 in ENE 5.6 mph 5.6 mph 37 % 0.0 in 450.0 W/m2 CLR
13:54 15.6 °F 0.5 °F 1018.5 in ENE 3.7 mph 3.7 mph 36 % 0.0 in 446.0 W/m2 CLR
13:59 15.6 °F 0.1 °F 1018.5 in ENE 5.6 mph 5.6 mph 35 % 0.0 in 441.0 W/m2 CLR
14:04 15.6 °F 0.1 °F 1018.5 in ENE 5.6 mph 5.6 mph 35 % 0.0 in 434.0 W/m2 CLR
14:14 15.6 °F 0.1 °F 1018.5 in ENE 5.6 mph 5.6 mph 35 % 0.0 in 422.0 W/m2 CLR
14:29 16.1 °F 0.2 °F 1018.5 in NNE 5.6 mph 5.6 mph 34 % 0.0 in 401.0 W/m2 CLR
14:34 16.1 °F 0.2 °F 1018.5 in NE 5.6 mph 5.6 mph 34 % 0.0 in 392.0 W/m2 CLR
14:39 16.1 °F -0.2 °F 1018.5 in NE 5.6 mph 5.6 mph 33 % 0.0 in 385.0 W/m2 CLR
14:49 16.1 °F -0.2 °F 1018.2 in East 5.6 mph 5.6 mph 33 % 0.0 in 366.0 W/m2 CLR
14:54 16.1 °F -0.2 °F 1018.2 in East 5.6 mph 5.6 mph 33 % 0.0 in 359.0 W/m2 CLR
14:55 16.1 °F -0.2 °F 1018.2 in ENE 8.0 mph 8.0 mph 33 % 0.0 in 355.0 W/m2 CLR
15:00 16.1 °F 0.2 °F 1018.2 in East 5.6 mph 5.6 mph 34 % 0.0 in 346.0 W/m2 CLR
15:05 16.1 °F 0.2 °F 1018.2 in ENE 5.6 mph 5.6 mph 34 % 0.0 in 336.0 W/m2 CLR
15:10 16.1 °F 0.6 °F 1018.2 in ENE 5.6 mph   35 % 0.0 in 327.0 W/m2 CLR
15:15 16.1 °F 1.0 °F 1018.2 in Calm     36 % 0.0 in 315.0 W/m2 CLR
15:20 16.1 °F 1.0 °F 1018.2 in ENE 1.9 mph 1.9 mph 36 % 0.0 in 302.0 W/m2 CLR
15:30 16.1 °F 1.4 °F 1018.2 in Calm   0.6 mph 37 % 0.0 in 281.0 W/m2 CLR
15:35 16.1 °F 1.0 °F 1018.2 in ENE 5.6 mph 5.6 mph 36 % 0.0 in 267.0 W/m2 CLR
15:41 16.1 °F 1.4 °F 1018.2 in Calm     37 % 0.0 in 251.0 W/m2 CLR
15:46 16.1 °F 1.4 °F 1018.2 in Calm     37 % 0.0 in 236.0 W/m2 CLR
15:56 15.6 °F 0.9 °F 1018.2 in Calm     37 % 0.0 in 207.0 W/m2 CLR
16:01 15.6 °F 0.9 °F 1018.2 in ENE 3.7 mph 3.7 mph 37 % 0.0 in 193.0 W/m2 CLR
16:06 15.6 °F 0.9 °F 1018.2 in Calm     37 % 0.0 in 174.0 W/m2 CLR
16:11 15.0 °F 0.8 °F 1018.2 in Calm     38 % 0.0 in 160.0 W/m2 CLR
16:16 15.0 °F 0.8 °F 1018.2 in Calm     38 % 0.0 in 146.0 W/m2 CLR
16:21 15.0 °F 0.8 °F 1018.2 in Calm     38 % 0.0 in 130.0 W/m2 CLR
16:27 15.0 °F 0.4 °F 1018.2 in Calm     37 % 0.0 in 114.0 W/m2 CLR
16:37 13.9 °F -0.2 °F 1018.2 in Calm     38 % 0.0 in 86.0 W/m2 CLR
16:42 13.3 °F -0.7 °F 1018.2 in Calm     38 % 0.0 in 72.0 W/m2 FEW
16:52 11.7 °F -2.2 °F 1018.2 in Calm     38 % 0.0 in 49.0 W/m2 SCT
16:57 11.1 °F -3.1 °F 1018.2 in Calm     37 % 0.0 in 40.0 W/m2 BKN
17:02 10.6 °F -3.6 °F 1018.2 in Calm     37 % 0.0 in 33.0 W/m2 BKN
17:12 9.4 °F -4.2 °F 1018.2 in Calm     38 % 0.0 in 18.0 W/m2 BKN
17:17 8.9 °F -4.7 °F 1018.2 in Calm     38 % 0.0 in 14.0 W/m2 BKN
17:22 8.9 °F -4.7 °F 1018.2 in Calm     38 % 0.0 in 12.0 W/m2 BKN
17:27 8.9 °F -4.3 °F 1018.2 in Calm     39 % 0.0 in 9.0 W/m2 BKN
17:37 8.9 °F -3.7 °F 1018.2 in Calm     41 % 0.0 in 0.0 W/m2 OVC
17:42 8.3 °F -4.2 °F 1018.2 in Calm     41 % 0.0 in 0.0 W/m2 OVC
17:47 8.3 °F -3.8 °F 1018.2 in Calm     42 % 0.0 in 0.0 W/m2 CLR
17:52 8.9 °F -3.1 °F 1017.8 in Calm     43 % 0.0 in 0.0 W/m2 CLR
17:57 8.9 °F -2.7 °F 1017.8 in Calm     44 % 0.0 in 0.0 W/m2 CLR
18:07 8.3 °F -2.6 °F 1017.8 in Calm     46 % 0.0 in 0.0 W/m2 CLR
18:12 7.8 °F -2.8 °F 1017.8 in Calm     47 % 0.0 in 0.0 W/m2 CLR
18:17 7.2 °F -3.1 °F 1017.8 in Calm     48 % 0.0 in 0.0 W/m2 CLR
18:22 6.7 °F -3.1 °F 1017.8 in Calm     50 % 0.0 in 0.0 W/m2 CLR
18:32 6.7 °F -2.5 °F 1017.8 in Calm     52 % 0.0 in 0.0 W/m2 CLR
18:37 6.1 °F -2.8 °F 1017.8 in Calm     53 % 0.0 in 0.0 W/m2 CLR
18:52 5.0 °F -3.6 °F 1017.8 in Calm     54 % 0.0 in 0.0 W/m2 CLR
18:57 5.0 °F -3.1 °F 1017.8 in Calm     56 % 0.0 in 0.0 W/m2 CLR
19:02 5.0 °F -3.1 °F 1017.8 in Calm     56 % 0.0 in 0.0 W/m2 CLR
19:07 5.0 °F -2.8 °F 1017.8 in Calm     57 % 0.0 in 0.0 W/m2 CLR
19:17 4.4 °F -3.3 °F 1017.8 in Calm     57 % 0.0 in 0.0 W/m2 CLR
19:27 4.4 °F -2.7 °F 1017.8 in Calm     60 % 0.0 in 0.0 W/m2 CLR
19:32 4.4 °F -2.7 °F 1017.8 in Calm     60 % 0.0 in 0.0 W/m2 CLR
19:33 4.4 °F -2.7 °F 1017.8 in Calm     60 % 0.0 in 0.0 W/m2 CLR
19:38 3.9 °F -3.2 °F 1017.8 in Calm     60 % 0.0 in 0.0 W/m2 CLR
19:43 3.9 °F -2.9 °F 1017.8 in Calm     61 % 0.0 in 0.0 W/m2 CLR
19:48 3.3 °F -3.5 °F 1017.8 in Calm     61 % 0.0 in 0.0 W/m2 CLR
19:58 3.3 °F -3.3 °F 1017.8 in Calm     62 % 0.0 in 0.0 W/m2 CLR
20:03 2.8 °F -3.8 °F 1017.8 in Calm     62 % 0.0 in 0.0 W/m2 CLR
20:15 2.8 °F -3.6 °F 1017.8 in Calm     63 % 0.0 in 0.0 W/m2 CLR
20:20 2.8 °F -3.2 °F 1017.8 in Calm     65 % 0.0 in 0.0 W/m2 CLR
20:40 3.3 °F -2.4 °F 1018.2 in Calm     66 % 0.0 in 0.0 W/m2 CLR
20:45 2.8 °F -2.7 °F 1018.2 in Calm     67 % 0.0 in 0.0 W/m2 CLR
20:50 2.8 °F -2.7 °F 1018.2 in Calm     67 % 0.0 in 0.0 W/m2 CLR
20:55 2.2 °F -3.1 °F 1018.2 in Calm     68 % 0.0 in 0.0 W/m2 CLR
21:05 1.7 °F -3.6 °F 1018.2 in Calm     68 % 0.0 in 0.0 W/m2 CLR
21:10 1.7 °F -3.6 °F 1018.2 in Calm     68 % 0.0 in 0.0 W/m2 CLR
21:20 1.1 °F -3.9 °F 1018.5 in Calm     69 % 0.0 in 0.0 W/m2 CLR
21:25 1.1 °F -4.6 °F 1018.5 in Calm     66 % 0.0 in 0.0 W/m2 CLR
21:30 1.1 °F -4.3 °F 1018.5 in Calm     67 % 0.0 in 0.0 W/m2 CLR
21:35 1.1 °F -3.9 °F 1018.5 in Calm     69 % 0.0 in 0.0 W/m2 CLR
21:40 1.1 °F -3.9 °F 1018.5 in Calm     69 % 0.0 in 0.0 W/m2 CLR
21:45 1.1 °F -3.9 °F 1018.5 in Calm     69 % 0.0 in 0.0 W/m2 CLR
21:50 1.1 °F -3.6 °F 1018.5 in Calm     71 % 0.0 in 0.0 W/m2 CLR
21:55 1.1 °F -3.6 °F 1018.5 in Calm     71 % 0.0 in 0.0 W/m2 CLR
22:00 1.1 °F -3.2 °F 1018.8 in Calm     73 % 0.0 in 0.0 W/m2 CLR
22:05 1.1 °F -3.2 °F 1018.5 in Calm     73 % 0.0 in 0.0 W/m2 CLR
22:10 0.6 °F -3.6 °F 1018.8 in Calm     74 % 0.0 in 0.0 W/m2 CLR
22:15 0.6 °F -3.4 °F 1018.8 in Calm     75 % 0.0 in 0.0 W/m2 CLR
22:20 0.0 °F -4.1 °F 1018.8 in Calm     74 % 0.0 in 0.0 W/m2 CLR
22:25 0.0 °F -4.3 °F 1018.8 in Calm     73 % 0.0 in 0.0 W/m2 CLR
22:30 -0.6 °F -4.8 °F 1018.8 in Calm     73 % 0.0 in 0.0 W/m2 CLR
22:35 0.0 °F -4.4 °F 1019.2 in Calm     72 % 0.0 in 0.0 W/m2 CLR
22:40 0.0 °F -4.4 °F 1019.2 in Calm     72 % 0.0 in 0.0 W/m2 CLR
22:45 0.6 °F -3.6 °F 1019.2 in Calm     74 % 0.0 in 0.0 W/m2 CLR
22:55 0.6 °F -3.4 °F 1018.8 in Calm     75 % 0.0 in 0.0 W/m2 CLR
23:00 0.6 °F -3.4 °F 1019.2 in Calm     75 % 0.0 in 0.0 W/m2 CLR
23:05 0.0 °F -4.1 °F 1019.2 in Calm     74 % 0.0 in 0.0 W/m2 CLR
23:10 0.0 °F -4.3 °F 1018.8 in Calm     73 % 0.0 in 0.0 W/m2 CLR
23:15 0.0 °F -4.3 °F 1018.8 in Calm     73 % 0.0 in 0.0 W/m2 CLR
23:20 -0.6 °F -4.6 °F 1018.8 in Calm     74 % 0.0 in 0.0 W/m2 CLR
23:25 -0.6 °F -4.6 °F 1018.8 in Calm     74 % 0.0 in 0.0 W/m2 CLR
23:30 -0.6 °F -4.6 °F 1019.2 in Calm     74 % 0.0 in 0.0 W/m2 CLR
23:35 -0.6 °F -4.8 °F 1019.2 in Calm     73 % 0.0 in 0.0 W/m2 CLR
23:45 -1.1 °F -5.3 °F 1019.2 in Calm     73 % 0.0 in 0.0 W/m2 CLR
23:50 -1.1 °F -5.2 °F 1019.2 in Calm     74 % 0.0 in 0.0 W/m2 CLR
23:51 -1.1 °F -5.2 °F 1019.2 in Calm     74 % 0.0 in 0.0 W/m2 CLR
23:56 -1.1 °F -5.2 °F 1019.2 in Calm     74 % 0.0 in 0.0 W/m2 CLR
Lo Temps de Massalio
Compliments of Weather Underground - 1 mb